Latest Weather Observations for Camden

IDN60801

Issued at 2:32 am EDT Tuesday 28 February 2017 (issued every 30 minutes, with the page automatically refreshed every 10 minutes)

About weather observations | Map of weather stations | Latest weather observations for NSW | Other Formats
Station Details ID: 068192 Name: CAMDEN AIRPORT AWS Lat: -34.04 Lon: 150.69 Height: 73.9 m
Data from the previous 72 hours. | See also: Recent months at Camden
Date/Time
EDT
Temp
°C
App
Temp
°C
Dew
Point
°C
Rel
Hum
%
Delta-T
°C
Wind Press
QNH
hPa
Press
MSL
hPa
Rain since
9am
mm
Dir  Spd
km/h
Gust
km/h
Spd
kts
Gust
kts
28/02:30am 18.5 20.7 16.5 88 1.2 CALM 0 4 0 2 1022.6 1022.3 0.2
28/02:00am 18.3 19.3 16.3 88 1.2 SW 6 9 3 5 1023.0 1022.7 0.2
28/01:30am 17.7 19.7 15.9 89 1.1 CALM 0 7 0 4 1023.4 1023.1 0.2
28/01:00am 17.8 18.4 15.4 86 1.4 SSW 6 7 3 4 1023.6 1023.3 0.2
28/12:30am 18.3 19.0 15.7 85 1.5 S 6 7 3 4 1023.7 1023.4 0.2
28/12:00am 18.2 19.0 15.8 86 1.4 SSW 6 7 3 4 1023.8 1023.5 0.2
 
Date/Time
EDT
Temp
°C
App
Temp
°C
Dew
Point
°C
Rel
Hum
%
Delta-T
°C
Wind Press
QNH
hPa
Press
MSL
hPa
Rain since
9am
mm
Dir  Spd
km/h
Gust
km/h
Spd
kts
Gust
kts
27/11:30pm 18.7 19.5 15.8 83 1.7 S 6 7 3 4 1024.1 1023.8 0.2
27/11:00pm 18.9 19.7 15.8 82 1.8 SSW 6 7 3 4 1024.0 1023.7 0.2
27/10:30pm 19.3 19.4 15.4 78 2.3 S 9 11 5 6 1024.1 1023.8 0.2
27/10:00pm 19.3 21.1 15.4 78 2.3 CALM 0 0 0 0 1024.1 1023.8 0.2
27/09:30pm 19.1 20.7 14.8 76 2.5 CALM 0 0 0 0 1024.0 1023.7 0.2
27/09:00pm 19.7 19.9 14.7 73 2.9 SSW 7 9 4 5 1023.8 1023.5 0.2
27/08:30pm 20.2 19.9 14.3 69 3.4 SSE 9 13 5 7 1023.5 1023.2 0.2
27/08:00pm 21.2 20.0 15.1 68 3.6 SSE 15 20 8 11 1023.4 1023.1 0.2
27/07:30pm 22.0 20.2 14.4 62 4.5 SSE 17 26 9 14 1023.2 1022.9 0.2
27/07:00pm 23.0 21.0 13.8 56 5.4 SSE 17 24 9 13 1023.1 1022.8 0.2
27/06:30pm 23.9 20.8 12.2 48 6.7 SSE 20 32 11 17 1022.8 1022.5 0.2
27/06:00pm 24.3 21.4 12.9 49 6.6 SSE 20 28 11 15 1022.6 1022.3 0.2
27/05:30pm 25.0 22.2 13.2 48 6.9 SSE 20 28 11 15 1022.5 1022.2 0.2
27/05:00pm 25.3 22.5 14.4 50 6.5 SE 22 32 12 17 1022.6 1022.3 0.2
27/04:30pm 24.7 21.7 13.6 50 6.5 SSE 22 30 12 16 1022.5 1022.2 0.2
27/04:00pm 25.0 21.7 13.9 50 6.5 SSE 24 32 13 17 1022.6 1022.3 0.2
27/03:30pm 25.3 22.2 14.4 50 6.5 SE 24 35 13 19 1022.7 1022.4 0.2
27/03:00pm 26.1 24.0 15.2 51 6.6 SSE 20 33 11 18 1022.8 1022.5 0.2
27/02:30pm 26.2 24.4 15.6 52 6.5 SSE 19 32 10 17 1023.2 1022.9 0.0
27/02:00pm 24.4 22.1 14.2 53 6.0 SE 19 32 10 17 1023.7 1023.4 0.0
27/01:30pm 25.7 23.8 15.1 52 6.4 SE 19 32 10 17 1023.6 1023.3 0.0
27/01:00pm 25.1 23.1 15.4 55 5.9 SE 20 30 11 16 1023.8 1023.5 0.0
27/12:30pm 25.3 23.6 14.7 51 6.4 ESE 17 26 9 14 1023.8 1023.5 0.0
27/12:00pm 24.7 24.0 15.3 56 5.7 SE 13 24 7 13 1024.3 1024.0 0.0
27/11:30am 24.4 24.2 15.6 58 5.3 SSE 11 19 6 10 1024.5 1024.2 0.0
27/11:00am 24.3 24.8 16.6 62 4.7 SSW 9 13 5 7 1024.6 1024.3 0.0
27/10:30am 23.9 23.9 16.2 62 4.7 SSE 11 19 6 10 1024.7 1024.4 0.0
27/10:00am 22.3 23.7 16.3 69 3.6 SSE 4 9 2 5 1024.9 1024.6 0.0
27/09:30am 22.0 22.7 16.1 69 3.6 SSW 7 11 4 6 1024.9 1024.6 0.0
27/09:00am 21.7 22.4 17.1 75 2.8 SSW 9 11 5 6 1024.7 1024.4 2.4
27/08:30am 20.9 21.7 17.3 80 2.2 SSW 9 13 5 7 1024.4 1024.1 2.4
27/08:00am 19.4 21.9 18.2 93 0.7 SSW 2 9 1 5 1024.0 1023.7 2.4
27/07:30am 18.5 20.6 18.2 98 0.2 N 4 7 2 4 1023.7 1023.4 2.4
27/07:00am 18.1 19.7 17.9 99 0.1 SSE 6 9 3 5 1023.3 1023.0 2.4
27/06:30am 17.7 19.2 17.5 99 0.1 SW 6 7 3 4 1023.2 1022.9 2.4
27/06:00am 17.7 20.3 17.5 99 0.1 CALM 0 0 0 0 1023.1 1022.8 2.4
27/05:30am 16.9 19.1 16.6 98 0.2 CALM 0 0 0 0 1022.8 1022.5 2.4
27/05:00am 16.8 18.9 16.2 96 0.4 CALM 0 0 0 0 1022.5 1022.2 2.4
27/04:30am 17.0 18.4 16.4 96 0.4 SSW 4 11 2 6 1022.4 1022.1 2.4
27/04:00am 17.0 17.8 16.4 96 0.4 SW 7 11 4 6 1022.4 1022.1 2.4
27/03:30am 17.0 17.4 16.4 96 0.4 SW 9 13 5 7 1022.6 1022.3 2.4
27/03:23am 17.0 17.4 16.2 95 0.5 SW 9 11 5 6 1022.7 1022.4 2.4
27/03:17am 17.0 17.9 16.2 95 0.5 SW 6 11 3 6 1022.8 1022.5 2.2
27/03:10am 17.0 18.2 15.9 93 0.6 SW 4 7 2 4 1022.9 1022.6 2.0
27/03:05am 17.1 18.0 16.0 93 0.7 SW 6 7 3 4 1023.0 1022.7 1.8
27/03:00am 17.1 17.7 15.8 92 0.8 SW 7 11 4 6 1023.0 1022.7 1.6
27/02:54am 17.2 17.4 15.7 91 0.9 SSW 9 13 5 7 1023.0 1022.7 1.2
27/02:36am 17.5 19.3 15.5 88 1.2 CALM 0 7 0 4 1023.1 1022.8 0.8
27/02:30am 17.6 19.5 15.8 89 1.1 CALM 0 0 0 0 1023.1 1022.8 0.8
27/02:00am 17.7 18.2 15.0 84 1.6 SSW 6 9 3 5 1023.2 1022.9 0.4
27/01:30am 18.3 18.3 14.2 77 2.4 SW 7 11 4 6 1023.2 1022.9 0.2
27/01:00am 18.6 17.8 13.9 74 2.7 SSW 11 17 6 9 1023.4 1023.1 0.2
27/12:30am 18.6 18.6 13.5 72 2.9 SW 6 7 3 4 1023.5 1023.2 0.2
27/12:00am 18.1 17.7 13.0 72 2.9 SW 7 11 4 6 1023.5 1023.2 0.2
 
Date/Time
EDT
Temp
°C
App
Temp
°C
Dew
Point
°C
Rel
Hum
%
Delta-T
°C
Wind Press
QNH
hPa
Press
MSL
hPa
Rain since
9am
mm
Dir  Spd
km/h
Gust
km/h
Spd
kts
Gust
kts
26/11:30pm 18.1 17.1 12.3 69 3.2 SW 9 11 5 6 1023.7 1023.4 0.2
26/11:00pm 18.9 17.5 12.2 65 3.7 SW 11 15 6 8 1023.9 1023.6 0.2
26/10:30pm 18.9 18.5 12.4 66 3.6 SW 6 7 3 4 1024.0 1023.7 0.2
26/10:00pm 19.1 18.4 12.1 64 3.9 WSW 7 9 4 5 1023.8 1023.5 0.2
26/09:30pm 19.1 18.4 11.9 63 4.0 SW 7 13 4 7 1023.7 1023.4 0.2
26/09:00pm 19.5 18.0 11.8 61 4.3 SSW 11 15 6 8 1023.4 1023.1 0.2
26/08:30pm 19.2 17.3 11.7 62 4.1 S 13 20 7 11 1023.1 1022.8 0.2
26/08:00pm 19.9 18.0 11.9 60 4.4 S 13 19 7 10 1022.9 1022.6 0.2
26/07:30pm 20.4 17.8 11.9 58 4.7 SSE 17 28 9 15 1022.6 1022.3 0.2
26/07:00pm 21.5 18.2 11.5 53 5.6 SSE 20 28 11 15 1022.3 1022.0 0.2
26/06:30pm 22.4 19.4 11.8 51 6.0 SE 19 28 10 15 1022.0 1021.7 0.2
26/06:00pm 23.3 20.3 12.0 49 6.4 SSE 19 32 10 17 1021.7 1021.4 0.2
26/05:30pm 23.6 20.7 12.3 49 6.5 S 19 30 10 16 1021.6 1021.3 0.2
26/05:00pm 23.1 20.4 11.8 49 6.4 S 17 26 9 14 1021.8 1021.5 0.2
26/04:30pm 23.5 20.7 12.5 50 6.3 SSE 19 26 10 14 1021.7 1021.4 0.2
26/04:00pm 23.0 20.0 12.6 52 5.9 SSE 20 30 11 16 1021.7 1021.4 0.2
26/03:30pm 23.3 20.5 12.6 51 6.1 SSE 19 28 10 15 1021.9 1021.6 0.2
26/03:00pm 22.9 20.9 12.8 53 5.8 SSE 15 22 8 12 1022.3 1022.0 0.2
26/02:30pm 22.8 20.0 13.3 55 5.5 SSE 20 30 11 16 1022.7 1022.4 0.2
26/02:00pm 22.5 19.7 13.3 56 5.3 SSE 20 28 11 15 1022.7 1022.4 0.2
26/01:30pm 22.4 20.4 14.0 59 4.9 SE 17 28 9 15 1022.9 1022.6 0.2
26/01:00pm 21.7 21.0 14.4 63 4.3 SE 11 17 6 9 1023.2 1022.9 0.2
26/12:30pm 20.7 21.1 15.3 71 3.2 ESE 7 11 4 6 1023.5 1023.2 0.2
26/12:00pm 20.0 20.6 15.4 75 2.7 SE 6 9 3 5 1023.7 1023.4 0.2
26/11:30am 21.0 20.1 14.9 68 3.6 SE 13 17 7 9 1023.6 1023.3 0.0
26/11:00am 19.5 20.2 15.6 78 2.3 ESE 6 11 3 6 1023.7 1023.4 0.0
26/10:30am 20.4 19.2 14.1 67 3.7 S 13 20 7 11 1023.8 1023.5 0.0
26/10:00am 21.0 20.6 15.1 69 3.5 SSW 11 15 6 8 1023.4 1023.1 0.0
26/09:30am 20.9 20.5 15.2 70 3.4 S 11 17 6 9 1023.1 1022.8 0.0
26/09:00am 20.2 19.2 14.6 70 3.3 S 13 17 7 9 1022.8 1022.5 19.2
26/08:30am 19.5 18.4 15.4 77 2.4 SSW 15 20 8 11 1022.4 1022.1 19.2
26/08:00am 18.5 17.9 15.6 83 1.7 SSW 13 17 7 9 1022.3 1022.0 19.2
26/07:30am 17.7 18.0 16.0 90 1.0 SSW 9 13 5 7 1022.0 1021.7 19.2
26/07:00am 17.3 19.4 16.3 94 0.6 CALM 0 6 0 3 1021.9 1021.6 19.2
26/06:30am 17.3 18.2 16.2 93 0.7 SW 6 7 3 4 1021.7 1021.4 19.0
26/06:00am 17.3 18.8 15.8 91 0.9 S 2 7 1 4 1021.4 1021.1 19.0
26/05:30am 17.5 17.0 16.0 91 0.9 S 13 19 7 10 1021.1 1020.8 19.0
26/05:00am 17.4 17.9 16.6 95 0.5 SSW 9 13 5 7 1020.9 1020.6 19.0
26/04:30am 17.5 17.3 16.7 95 0.5 SSW 13 15 7 8 1020.7 1020.4 19.0
26/04:00am 17.7 19.2 17.5 99 0.1 SSW 6 11 3 6 1020.8 1020.5 19.0
26/03:35am 17.8 18.7 17.6 99 0.1 S 9 13 5 7 1020.8 1020.5 18.8
26/03:30am 17.8 18.7 17.6 99 0.1 S 9 17 5 9 1020.8 1020.5 18.6
26/03:08am 17.7 18.2 17.5 99 0.1 SSE 11 17 6 9 1020.7 1020.4 16.0
26/03:06am 17.7 18.2 17.5 99 0.1 S 11 17 6 9 1020.8 1020.5 15.6
26/03:00am 17.8 18.7 17.6 99 0.1 S 9 15 5 8 1020.8 1020.5 14.6
26/02:52am 17.8 18.4 17.6 99 0.1 SSW 11 15 6 8 1020.9 1020.6 13.6
26/02:30am 17.7 18.6 17.5 99 0.1 SSW 9 17 5 9 1021.0 1020.7 11.2
26/02:00am 17.9 18.4 17.4 97 0.3 S 11 15 6 8 1020.9 1020.6 5.2
26/01:38am 18.2 19.0 17.4 95 0.5 SSE 9 15 5 8 1021.1 1020.8 1.2
26/01:30am 18.1 19.5 17.3 95 0.5 SSE 6 9 3 5 1021.1 1020.8 0.4
26/01:28am 18.1 19.2 17.1 94 0.6 S 7 9 4 5 1021.1 1020.8 0.4
26/01:10am 18.3 18.4 16.6 90 1.0 S 11 17 6 9 1021.0 1020.7 0.2
26/01:00am 18.7 18.0 16.3 86 1.4 S 15 22 8 12 1021.0 1020.7 0.0
26/12:53am 18.9 18.2 16.3 85 1.6 S 15 22 8 12 1021.0 1020.7 0.0
26/12:30am 19.8 19.6 15.7 77 2.4 SSW 11 17 6 9 1020.9 1020.6 0.0
26/12:00am 19.7 19.8 15.4 76 2.5 SSW 9 13 5 7 1020.9 1020.6 0.0
 
Date/Time
EDT
Temp
°C
App
Temp
°C
Dew
Point
°C
Rel
Hum
%
Delta-T
°C
Wind Press
QNH
hPa
Press
MSL
hPa
Rain since
9am
mm
Dir  Spd
km/h
Gust
km/h
Spd
kts
Gust
kts
25/11:30pm 19.6 19.4 14.6 73 2.9 SSW 9 11 5 6 1021.0 1020.7 0.0
25/11:00pm 19.8 19.6 14.6 72 3.0 SSW 9 11 5 6 1021.1 1020.8 0.0
25/10:30pm 20.0 19.6 14.1 69 3.4 SSW 9 11 5 6 1021.2 1020.9 0.0
25/10:00pm 20.0 19.2 14.1 69 3.4 SSW 11 15 6 8 1021.1 1020.8 0.0
25/09:30pm 19.8 19.6 14.6 72 3.0 S 9 13 5 7 1020.8 1020.5 0.0
25/09:00pm 19.8 18.8 14.6 72 3.0 S 13 19 7 10 1020.8 1020.5 0.0
25/08:30pm 20.2 19.2 14.6 70 3.3 SSW 13 20 7 11 1020.9 1020.6 0.0
25/08:00pm 20.4 19.0 14.5 69 3.4 SSE 15 20 8 11 1020.7 1020.4 0.0
25/07:30pm 20.7 20.2 14.8 69 3.5 S 11 17 6 9 1020.6 1020.3 0.0
25/07:00pm 20.8 20.6 14.7 68 3.6 SE 9 15 5 8 1020.4 1020.1 0.0
25/06:30pm 21.0 20.3 14.2 65 4.0 SSE 11 15 6 8 1019.9 1019.6 0.0
25/06:00pm 21.2 20.5 14.4 65 4.0 S 11 17 6 9 1019.7 1019.4 0.0
25/05:30pm 20.7 19.6 14.4 67 3.7 S 13 20 7 11 1020.1 1019.8 0.0
25/05:00pm 21.0 20.3 14.4 66 3.9 SSW 11 17 6 9 1020.2 1019.9 0.0
25/04:30pm 21.0 20.8 14.6 67 3.8 S 9 13 5 7 1020.3 1020.0 0.0
25/04:00pm 20.9 19.1 14.5 67 3.7 SSE 17 22 9 12 1020.4 1020.1 0.0
25/03:30pm 21.4 21.4 14.1 63 4.3 S 7 13 4 7 1020.5 1020.2 0.0
25/03:00pm 21.1 20.3 14.0 64 4.1 SSW 11 17 6 9 1020.6 1020.3 0.0
25/02:30pm 21.2 20.4 13.9 63 4.2 S 11 20 6 11 1020.9 1020.6 0.0
25/02:00pm 21.0 19.9 14.2 65 4.0 S 13 20 7 11 1021.2 1020.9 0.0
25/01:30pm 20.9 19.7 14.1 65 4.0 S 13 20 7 11 1021.2 1020.9 0.0
25/01:00pm 20.6 18.5 13.6 64 4.0 S 17 24 9 13 1021.4 1021.1 0.0
25/12:30pm 20.7 18.6 13.6 64 4.1 S 17 24 9 13 1021.5 1021.2 0.0
25/12:00pm 20.7 19.1 13.9 65 3.9 S 15 22 8 12 1021.7 1021.4 0.0
25/11:30am 20.6 18.6 14.0 66 3.8 S 17 24 9 13 1021.9 1021.6 0.0
25/11:00am 20.3 18.4 14.2 68 3.5 S 17 28 9 15 1021.9 1021.6 0.0
25/10:30am 20.3 18.9 14.4 69 3.4 S 15 24 8 13 1021.7 1021.4 0.0
25/10:00am 20.2 19.2 14.6 70 3.3 S 13 20 7 11 1021.7 1021.4 0.0
25/09:30am 19.9 17.7 14.3 70 3.3 S 19 26 10 14 1021.5 1021.2 0.0
25/09:00am 19.8 18.4 14.4 71 3.1 S 15 22 8 12 1021.4 1021.1 3.0
25/08:30am 19.5 18.0 14.3 72 3.0 S 15 20 8 11 1021.3 1021.0 3.0
25/08:00am 19.5 18.5 14.7 74 2.8 S 13 19 7 10 1021.1 1020.8 3.0
25/07:30am 19.2 17.8 14.5 74 2.7 S 15 24 8 13 1021.0 1020.7 3.0
25/07:00am 19.2 17.5 14.7 75 2.6 S 17 24 9 13 1020.6 1020.3 3.0
25/06:30am 19.3 17.7 15.0 76 2.5 S 17 30 9 16 1020.2 1019.9 3.0
25/06:00am 19.4 18.3 15.3 77 2.4 S 15 20 8 11 1020.0 1019.7 3.0
25/05:30am 19.7 18.2 15.4 76 2.5 S 17 28 9 15 1019.8 1019.5 3.0
25/05:00am 19.8 18.0 15.4 76 2.6 S 19 28 10 15 1019.7 1019.4 3.0
25/04:30am 19.9 18.1 15.5 76 2.6 S 19 35 10 19 1019.7 1019.4 3.0
25/04:00am 20.0 19.1 15.8 77 2.5 S 15 26 8 14 1019.6 1019.3 3.0
25/03:30am 20.2 19.7 16.0 77 2.5 S 13 20 7 11 1019.6 1019.3 3.0
25/03:00am 20.4 19.2 16.2 77 2.5 S 17 26 9 14 1019.7 1019.4 3.0

Other Formats:

Comma delimited format used in spreadsheet applications
http://www.bom.gov.au/fwo/IDN60801/IDN60801.94755.axf

JavaScript Object Notation format (JSON) in row-major order
http://www.bom.gov.au/fwo/IDN60801/IDN60801.94755.json